Time;durP1;ratioP1;P1;durP2;ratioP2;P2;SDS_P1;SDS_P2;PMS_P1;PMS_P2;Temp;Humidity;BMP_temperature;BMP_pressure;BME280_temperature;BME280_humidity;BME280_pressure;Samples;Min_cycle;Max_cycle;Signal;HPM_P1;HPM_P2
2020/03/09 00:01:15;;;;;;;2.10;1.90;;;;;;;19.71;39.22;100063.84;;;;-50
2020/03/09 00:04:15;;;;;;;2.16;1.90;;;;;;;19.70;39.19;100055.73;;;;-50
2020/03/09 00:07:15;;;;;;;2.04;1.84;;;;;;;19.68;39.16;100054.41;;;;-50
2020/03/09 00:10:15;;;;;;;2.79;1.84;;;;;;;19.66;39.22;100054.95;;;;-50
2020/03/09 00:13:15;;;;;;;6.61;2.19;;;;;;;19.65;39.23;100057.59;;;;-50
2020/03/09 00:16:15;;;;;;;2.75;1.95;;;;;;;19.64;39.25;100057.22;;;;-50
2020/03/09 00:19:15;;;;;;;2.05;1.85;;;;;;;19.62;39.24;100057.98;;;;-50
2020/03/09 00:22:15;;;;;;;2.83;1.96;;;;;;;19.61;39.29;100059.88;;;;-50
2020/03/09 00:25:15;;;;;;;3.02;1.72;;;;;;;19.60;39.27;100059.91;;;;-50
2020/03/09 00:28:15;;;;;;;2.06;1.86;;;;;;;19.58;39.35;100051.30;;;;-50
2020/03/09 00:31:15;;;;;;;1.88;1.77;;;;;;;19.56;39.35;100056.69;;;;-50
2020/03/09 00:34:15;;;;;;;2.67;1.87;;;;;;;19.56;39.33;100061.10;;;;-50
2020/03/09 00:37:15;;;;;;;2.23;2.01;;;;;;;19.54;39.33;100061.70;;;;-50
2020/03/09 00:40:15;;;;;;;2.15;1.81;;;;;;;19.53;39.34;100060.48;;;;-50
2020/03/09 00:43:15;;;;;;;2.38;1.77;;;;;;;19.52;39.38;100064.91;;;;-50
2020/03/09 00:46:15;;;;;;;2.19;1.86;;;;;;;19.50;39.39;100053.87;;;;-50
2020/03/09 00:49:15;;;;;;;2.05;1.81;;;;;;;19.49;39.36;100052.23;;;;-50
2020/03/09 00:52:15;;;;;;;2.40;1.81;;;;;;;19.48;39.36;100053.43;;;;-50
2020/03/09 00:55:15;;;;;;;2.03;1.83;;;;;;;19.46;39.37;100046.25;;;;-51
2020/03/09 00:58:15;;;;;;;2.41;1.77;;;;;;;19.45;39.43;100040.69;;;;-50
2020/03/09 01:01:26;;;;;;;2.05;1.85;;;;;;;19.44;39.42;100042.66;;;;-50
2020/03/09 01:04:15;;;;;;;2.03;1.83;;;;;;;19.42;39.44;100042.35;;;;-50
2020/03/09 01:07:15;;;;;;;2.01;1.73;;;;;;;19.41;39.39;100041.61;;;;-50
2020/03/09 01:10:15;;;;;;;1.86;1.70;;;;;;;19.40;39.44;100038.55;;;;-50
2020/03/09 01:13:15;;;;;;;2.34;1.70;;;;;;;19.38;39.47;100035.77;;;;-50
2020/03/09 01:16:15;;;;;;;1.71;1.61;;;;;;;19.37;39.49;100029.56;;;;-50
2020/03/09 01:19:15;;;;;;;1.83;1.67;;;;;;;19.36;39.44;100033.48;;;;-50
2020/03/09 01:22:15;;;;;;;1.93;1.78;;;;;;;19.34;39.50;100025.73;;;;-50
2020/03/09 01:25:15;;;;;;;1.97;1.70;;;;;;;19.33;39.51;100020.14;;;;-50
2020/03/09 01:28:15;;;;;;;1.73;1.62;;;;;;;19.32;39.56;100017.86;;;;-51
2020/03/09 01:31:15;;;;;;;1.90;1.70;;;;;;;19.31;39.57;100018.89;;;;-50
2020/03/09 01:34:15;;;;;;;1.73;1.63;;;;;;;19.30;39.58;100013.93;;;;-50
2020/03/09 01:37:15;;;;;;;1.97;1.79;;;;;;;19.29;39.51;100019.75;;;;-50
2020/03/09 01:40:15;;;;;;;1.70;1.60;;;;;;;19.27;39.59;100016.77;;;;-50
2020/03/09 01:43:15;;;;;;;1.64;1.53;;;;;;;19.26;39.55;100017.40;;;;-50
2020/03/09 01:46:15;;;;;;;2.59;1.61;;;;;;;19.26;39.57;100016.13;;;;-50
2020/03/09 01:49:15;;;;;;;1.88;1.60;;;;;;;19.25;39.57;100008.89;;;;-50
2020/03/09 01:52:15;;;;;;;2.00;1.80;;;;;;;19.23;39.56;100006.06;;;;-50
2020/03/09 01:55:15;;;;;;;1.79;1.62;;;;;;;19.21;39.66;100006.33;;;;-50
2020/03/09 01:58:15;;;;;;;1.80;1.61;;;;;;;19.21;39.63;100005.48;;;;-50
2020/03/09 02:01:15;;;;;;;1.81;1.70;;;;;;;19.20;39.60;100004.01;;;;-50
2020/03/09 02:04:15;;;;;;;1.91;1.68;;;;;;;19.19;39.64;100000.55;;;;-51
2020/03/09 02:07:15;;;;;;;1.66;1.56;;;;;;;19.18;39.63;99999.01;;;;-50
2020/03/09 02:10:15;;;;;;;1.71;1.60;;;;;;;19.17;39.64;99994.58;;;;-50
2020/03/09 02:13:15;;;;;;;1.65;1.55;;;;;;;19.16;39.62;99995.42;;;;-50
2020/03/09 02:16:15;;;;;;;1.95;1.75;;;;;;;19.15;39.66;99992.47;;;;-49
2020/03/09 02:19:15;;;;;;;1.99;1.79;;;;;;;19.14;39.67;99997.12;;;;-50
2020/03/09 02:22:15;;;;;;;1.59;1.49;;;;;;;19.13;39.67;99997.52;;;;-51
2020/03/09 02:25:15;;;;;;;1.81;1.68;;;;;;;19.13;39.70;99997.58;;;;-50
2020/03/09 02:28:15;;;;;;;1.59;1.49;;;;;;;19.12;39.70;99999.31;;;;-50
2020/03/09 02:31:15;;;;;;;1.60;1.50;;;;;;;19.11;39.71;99996.86;;;;-49
2020/03/09 02:34:15;;;;;;;1.61;1.51;;;;;;;19.10;39.71;100006.37;;;;-50
2020/03/09 02:37:15;;;;;;;1.86;1.61;;;;;;;19.08;39.69;100006.96;;;;-50
2020/03/09 02:40:15;;;;;;;1.58;1.48;;;;;;;19.08;39.73;100009.87;;;;-50
2020/03/09 02:43:15;;;;;;;1.61;1.50;;;;;;;19.07;39.75;100007.92;;;;-51
2020/03/09 02:46:15;;;;;;;1.64;1.52;;;;;;;19.06;39.73;100002.80;;;;-50
2020/03/09 02:49:15;;;;;;;1.61;1.51;;;;;;;19.04;39.78;100000.05;;;;-50
2020/03/09 02:52:15;;;;;;;1.57;1.47;;;;;;;19.04;39.76;100004.13;;;;-51
2020/03/09 02:55:15;;;;;;;1.70;1.60;;;;;;;19.03;39.75;100007.27;;;;-51
2020/03/09 02:58:15;;;;;;;1.52;1.40;;;;;;;19.03;39.78;100013.56;;;;-50
2020/03/09 03:01:15;;;;;;;1.50;1.40;;;;;;;19.01;39.81;100013.21;;;;-51
2020/03/09 03:04:15;;;;;;;1.61;1.50;;;;;;;19.01;39.80;100016.33;;;;-50
2020/03/09 03:07:15;;;;;;;1.53;1.43;;;;;;;19.00;39.84;100017.80;;;;-52
2020/03/09 03:10:15;;;;;;;1.59;1.49;;;;;;;19.00;39.76;100020.37;;;;-52
2020/03/09 03:13:15;;;;;;;1.75;1.51;;;;;;;18.99;39.80;100019.66;;;;-52
2020/03/09 03:16:15;;;;;;;1.69;1.59;;;;;;;18.98;39.83;100016.55;;;;-51
2020/03/09 03:19:15;;;;;;;1.57;1.47;;;;;;;18.97;39.83;100017.91;;;;-52
2020/03/09 03:22:15;;;;;;;1.63;1.53;;;;;;;18.96;39.86;100020.05;;;;-51
2020/03/09 03:25:15;;;;;;;1.50;1.40;;;;;;;18.95;39.83;100028.23;;;;-52
2020/03/09 03:28:15;;;;;;;1.61;1.51;;;;;;;18.94;39.86;100030.70;;;;-52
2020/03/09 03:31:15;;;;;;;1.51;1.41;;;;;;;18.93;39.90;100031.84;;;;-52
2020/03/09 03:34:15;;;;;;;1.50;1.40;;;;;;;18.92;39.86;100033.97;;;;-52
2020/03/09 03:37:15;;;;;;;1.67;1.57;;;;;;;18.92;39.85;100040.57;;;;-52
2020/03/09 03:40:15;;;;;;;1.87;1.51;;;;;;;18.90;39.90;100044.67;;;;-52
2020/03/09 03:43:15;;;;;;;1.55;1.45;;;;;;;18.90;39.92;100049.63;;;;-51
2020/03/09 03:46:15;;;;;;;1.59;1.49;;;;;;;18.90;39.91;100055.71;;;;-52
2020/03/09 03:49:15;;;;;;;1.50;1.40;;;;;;;18.89;39.91;100056.52;;;;-52
2020/03/09 03:52:15;;;;;;;1.69;1.59;;;;;;;18.88;39.89;100061.48;;;;-52
2020/03/09 03:55:15;;;;;;;1.52;1.42;;;;;;;18.88;39.87;100060.42;;;;-52
2020/03/09 03:58:15;;;;;;;1.62;1.52;;;;;;;18.87;39.96;100069.34;;;;-51
2020/03/09 04:01:15;;;;;;;1.55;1.43;;;;;;;18.86;39.90;100069.48;;;;-52
2020/03/09 04:04:15;;;;;;;1.50;1.40;;;;;;;18.86;39.93;100071.65;;;;-51
2020/03/09 04:07:15;;;;;;;1.42;1.32;;;;;;;18.86;39.98;100070.98;;;;-51
2020/03/09 04:10:15;;;;;;;1.56;1.46;;;;;;;18.87;39.93;100075.54;;;;-51
2020/03/09 04:13:15;;;;;;;1.51;1.41;;;;;;;18.88;39.98;100079.49;;;;-51
2020/03/09 04:16:15;;;;;;;1.61;1.51;;;;;;;18.90;39.96;100087.67;;;;-52
2020/03/09 04:19:15;;;;;;;1.50;1.40;;;;;;;18.91;39.98;100086.71;;;;-52
2020/03/09 04:22:15;;;;;;;1.41;1.31;;;;;;;18.94;39.92;100092.45;;;;-52
2020/03/09 04:25:15;;;;;;;1.40;1.30;;;;;;;18.98;39.97;100083.14;;;;-52
2020/03/09 04:28:15;;;;;;;1.51;1.40;;;;;;;19.02;39.86;100090.40;;;;-52
2020/03/09 04:31:15;;;;;;;1.40;1.30;;;;;;;19.05;39.90;100093.37;;;;-52
2020/03/09 04:34:15;;;;;;;1.50;1.40;;;;;;;19.11;39.81;100103.31;;;;-51
2020/03/09 04:37:15;;;;;;;1.45;1.35;;;;;;;19.14;39.86;100106.28;;;;-52
2020/03/09 04:40:15;;;;;;;2.01;1.57;;;;;;;19.19;39.89;100116.16;;;;-52
2020/03/09 04:43:15;;;;;;;1.39;1.29;;;;;;;19.23;39.98;100116.62;;;;-52
2020/03/09 04:46:15;;;;;;;1.49;1.39;;;;;;;19.25;40.07;100120.16;;;;-52
2020/03/09 04:49:15;;;;;;;1.50;1.40;;;;;;;19.30;40.00;100123.09;;;;-52
2020/03/09 04:52:15;;;;;;;1.55;1.45;;;;;;;19.31;40.06;100124.41;;;;-52
2020/03/09 04:55:15;;;;;;;1.56;1.46;;;;;;;19.35;40.04;100126.08;;;;-51
2020/03/09 04:58:15;;;;;;;1.51;1.41;;;;;;;19.40;40.14;100129.31;;;;-51
2020/03/09 05:01:15;;;;;;;1.44;1.34;;;;;;;19.44;40.04;100133.93;;;;-52
2020/03/09 05:04:15;;;;;;;1.39;1.29;;;;;;;19.49;39.93;100135.63;;;;-52
2020/03/09 05:07:15;;;;;;;1.46;1.36;;;;;;;19.52;40.05;100137.16;;;;-52
2020/03/09 05:10:15;;;;;;;1.40;1.30;;;;;;;19.55;40.06;100137.55;;;;-52
2020/03/09 05:13:15;;;;;;;1.70;1.39;;;;;;;19.57;39.98;100140.53;;;;-51
2020/03/09 05:19:15;;;;;;;1.39;1.29;;;;;;;19.63;40.05;100141.77;;;;-51
2020/03/09 05:22:15;;;;;;;1.51;1.41;;;;;;;19.66;40.06;100147.25;;;;-52
2020/03/09 05:25:15;;;;;;;1.46;1.36;;;;;;;19.68;39.99;100144.58;;;;-51
2020/03/09 05:28:15;;;;;;;1.40;1.30;;;;;;;19.75;39.97;100148.77;;;;-52
2020/03/09 05:31:15;;;;;;;1.40;1.30;;;;;;;19.79;39.95;100154.35;;;;-52
2020/03/09 05:34:15;;;;;;;1.42;1.32;;;;;;;19.78;40.05;100153.75;;;;-51
2020/03/09 05:37:15;;;;;;;1.49;1.39;;;;;;;19.81;39.97;100153.19;;;;-52
2020/03/09 05:40:15;;;;;;;1.53;1.40;;;;;;;19.86;39.89;100161.66;;;;-52
2020/03/09 05:43:15;;;;;;;1.45;1.35;;;;;;;19.86;39.86;100167.62;;;;-52
2020/03/09 05:46:15;;;;;;;1.37;1.27;;;;;;;19.88;39.84;100165.75;;;;-52
2020/03/09 05:49:15;;;;;;;1.30;1.20;;;;;;;19.88;39.81;100162.67;;;;-52
2020/03/09 05:52:15;;;;;;;1.40;1.30;;;;;;;19.89;39.86;100156.08;;;;-52
2020/03/09 05:55:15;;;;;;;1.30;1.20;;;;;;;19.92;39.83;100161.79;;;;-52
2020/03/09 05:58:15;;;;;;;1.31;1.21;;;;;;;19.93;39.84;100162.23;;;;-52
2020/03/09 06:01:15;;;;;;;1.29;1.20;;;;;;;19.96;39.74;100166.20;;;;-52
2020/03/09 06:04:15;;;;;;;1.53;1.30;;;;;;;19.98;39.81;100171.06;;;;-52
2020/03/09 06:07:15;;;;;;;1.40;1.30;;;;;;;20.00;39.72;100169.00;;;;-52
2020/03/09 06:10:15;;;;;;;1.30;1.20;;;;;;;20.02;39.75;100168.47;;;;-52
2020/03/09 06:13:15;;;;;;;1.38;1.28;;;;;;;20.03;39.71;100169.34;;;;-52
2020/03/09 06:16:15;;;;;;;1.30;1.20;;;;;;;20.07;39.69;100168.76;;;;-52
2020/03/09 06:19:15;;;;;;;1.38;1.28;;;;;;;20.08;39.64;100165.00;;;;-52
2020/03/09 06:22:15;;;;;;;7.18;2.15;;;;;;;19.99;39.53;100167.45;;;;-57
2020/03/09 06:25:15;;;;;;;1.99;1.40;;;;;;;19.76;39.59;100168.59;;;;-52
2020/03/09 06:28:15;;;;;;;1.68;1.21;;;;;;;19.58;39.74;100168.15;;;;-53
2020/03/09 06:31:15;;;;;;;2.51;1.53;;;;;;;19.47;39.85;100174.58;;;;-54
2020/03/09 06:34:15;;;;;;;1.45;1.35;;;;;;;19.38;39.92;100179.47;;;;-57
2020/03/09 06:37:15;;;;;;;2.59;1.45;;;;;;;19.30;39.86;100186.62;;;;-51
2020/03/09 06:40:15;;;;;;;1.93;1.13;;;;;;;19.21;39.95;100190.37;;;;-52
2020/03/09 06:43:15;;;;;;;1.55;1.33;;;;;;;19.16;39.96;100200.88;;;;-51
2020/03/09 06:46:15;;;;;;;2.70;1.34;;;;;;;19.03;40.12;100199.66;;;;-53
2020/03/09 06:49:15;;;;;;;2.61;1.53;;;;;;;18.98;40.11;100205.70;;;;-50
2020/03/09 06:52:15;;;;;;;1.96;1.40;;;;;;;18.90;40.13;100210.82;;;;-52
2020/03/09 06:55:15;;;;;;;4.01;1.48;;;;;;;18.91;40.13;100217.95;;;;-51
2020/03/09 06:58:15;;;;;;;2.57;1.48;;;;;;;19.04;40.01;100221.59;;;;-51
2020/03/09 07:01:15;;;;;;;3.60;1.47;;;;;;;19.15;40.03;100222.80;;;;-51
2020/03/09 07:04:15;;;;;;;2.40;1.32;;;;;;;19.21;39.94;100221.84;;;;-52
2020/03/09 07:07:15;;;;;;;1.73;1.34;;;;;;;19.27;39.72;100221.92;;;;-51
2020/03/09 07:10:15;;;;;;;2.06;1.20;;;;;;;19.31;39.74;100227.22;;;;-51
2020/03/09 07:13:15;;;;;;;1.39;1.25;;;;;;;19.36;39.66;100231.57;;;;-52
2020/03/09 07:16:16;;;;;;;1.57;1.25;;;;;;;19.39;39.62;100249.11;;;;-52
2020/03/09 07:19:15;;;;;;;1.28;1.12;;;;;;;19.43;39.59;100257.37;;;;-52
2020/03/09 07:22:15;;;;;;;2.15;1.31;;;;;;;19.44;39.66;100256.12;;;;-51
2020/03/09 07:25:15;;;;;;;1.56;1.21;;;;;;;19.46;39.61;100262.63;;;;-51
2020/03/09 07:28:15;;;;;;;1.25;1.15;;;;;;;19.47;39.56;100269.94;;;;-52
2020/03/09 07:31:15;;;;;;;1.28;1.15;;;;;;;19.48;39.59;100275.04;;;;-51
2020/03/09 07:34:15;;;;;;;1.28;1.18;;;;;;;19.49;39.51;100281.74;;;;-51
2020/03/09 07:37:15;;;;;;;1.30;1.19;;;;;;;19.50;39.52;100290.03;;;;-51
2020/03/09 07:40:15;;;;;;;1.91;1.19;;;;;;;19.49;39.52;100295.58;;;;-51
2020/03/09 07:43:15;;;;;;;2.93;1.25;;;;;;;19.50;39.50;100294.72;;;;-51
2020/03/09 07:46:15;;;;;;;2.55;1.10;;;;;;;19.49;39.56;100292.23;;;;-51
2020/03/09 07:49:15;;;;;;;3.43;1.12;;;;;;;19.49;39.49;100298.59;;;;-52
2020/03/09 07:52:15;;;;;;;2.31;1.14;;;;;;;19.49;39.52;100310.16;;;;-51
2020/03/09 07:55:15;;;;;;;1.70;0.96;;;;;;;19.49;39.56;100315.84;;;;-51
2020/03/09 07:58:15;;;;;;;1.21;1.10;;;;;;;19.48;39.56;100319.16;;;;-51
2020/03/09 08:01:15;;;;;;;1.07;0.98;;;;;;;19.49;39.50;100329.98;;;;-52
2020/03/09 08:04:15;;;;;;;1.18;1.02;;;;;;;19.49;39.53;100331.36;;;;-51
2020/03/09 08:07:15;;;;;;;0.95;0.95;;;;;;;19.48;39.56;100333.45;;;;-52
2020/03/09 08:10:15;;;;;;;1.17;1.07;;;;;;;19.47;39.54;100333.95;;;;-51
2020/03/09 08:13:15;;;;;;;1.20;1.10;;;;;;;19.46;39.52;100339.27;;;;-51
2020/03/09 08:16:15;;;;;;;1.30;1.17;;;;;;;19.46;39.52;100334.31;;;;-51
2020/03/09 08:19:15;;;;;;;1.04;0.97;;;;;;;19.45;39.52;100328.58;;;;-52
2020/03/09 08:22:15;;;;;;;1.22;1.12;;;;;;;19.45;39.55;100333.27;;;;-52
2020/03/09 08:25:15;;;;;;;1.31;1.10;;;;;;;19.44;39.51;100335.91;;;;-52
2020/03/09 08:28:15;;;;;;;1.45;1.09;;;;;;;19.43;39.55;100334.12;;;;-51
2020/03/09 08:31:15;;;;;;;0.97;0.97;;;;;;;19.42;39.60;100334.20;;;;-51
2020/03/09 08:34:15;;;;;;;1.20;1.10;;;;;;;19.42;39.58;100343.58;;;;-51
2020/03/09 08:37:15;;;;;;;1.00;1.00;;;;;;;19.41;39.51;100347.03;;;;-52
2020/03/09 08:40:15;;;;;;;1.09;0.94;;;;;;;19.42;39.54;100349.65;;;;-52
2020/03/09 08:43:15;;;;;;;1.35;1.21;;;;;;;19.41;39.61;100355.27;;;;-51
2020/03/09 08:46:15;;;;;;;1.47;1.09;;;;;;;19.42;39.82;100357.66;;;;-51
2020/03/09 08:49:15;;;;;;;1.27;1.05;;;;;;;19.44;40.11;100362.42;;;;-53
2020/03/09 08:52:15;;;;;;;1.65;1.02;;;;;;;19.44;40.41;100359.84;;;;-53
2020/03/09 08:55:15;;;;;;;1.47;1.02;;;;;;;19.46;40.76;100361.51;;;;-55
2020/03/09 08:58:15;;;;;;;1.20;1.10;;;;;;;19.48;40.92;100362.53;;;;-55
2020/03/09 09:01:15;;;;;;;1.11;1.00;;;;;;;19.49;40.77;100374.53;;;;-49
2020/03/09 09:04:15;;;;;;;1.91;1.04;;;;;;;19.50;40.81;100375.35;;;;-51
2020/03/09 09:07:15;;;;;;;1.09;1.05;;;;;;;19.52;40.85;100379.86;;;;-50
2020/03/09 09:10:15;;;;;;;1.65;1.07;;;;;;;19.53;40.86;100382.19;;;;-52
2020/03/09 09:13:15;;;;;;;1.77;1.03;;;;;;;19.55;40.86;100386.34;;;;-52
2020/03/09 09:16:15;;;;;;;1.22;1.11;;;;;;;19.55;40.85;100396.41;;;;-53
2020/03/09 09:19:15;;;;;;;1.37;1.00;;;;;;;19.55;40.90;100391.21;;;;-55
2020/03/09 09:22:15;;;;;;;2.15;1.19;;;;;;;19.57;40.78;100398.33;;;;-54
2020/03/09 09:25:15;;;;;;;2.01;0.99;;;;;;;19.57;40.65;100400.44;;;;-54
2020/03/09 09:28:15;;;;;;;3.29;1.00;;;;;;;19.58;40.85;100398.03;;;;-49
2020/03/09 09:31:15;;;;;;;1.35;1.13;;;;;;;19.59;40.74;100396.67;;;;-55
2020/03/09 09:34:15;;;;;;;2.16;0.99;;;;;;;19.59;40.70;100404.22;;;;-50
2020/03/09 09:37:15;;;;;;;1.41;1.07;;;;;;;19.60;40.73;100401.08;;;;-60
2020/03/09 09:40:15;;;;;;;1.64;1.10;;;;;;;19.61;40.71;100400.24;;;;-46
2020/03/09 09:43:15;;;;;;;1.25;1.10;;;;;;;19.61;40.64;100405.20;;;;-47
2020/03/09 09:46:15;;;;;;;1.35;1.08;;;;;;;19.63;40.67;100403.01;;;;-48
2020/03/09 09:49:15;;;;;;;1.97;1.04;;;;;;;19.63;40.55;100396.41;;;;-49
2020/03/09 09:52:15;;;;;;;0.97;0.95;;;;;;;19.64;40.59;100397.29;;;;-58
2020/03/09 09:55:15;;;;;;;1.27;1.02;;;;;;;19.64;40.54;100397.23;;;;-58
2020/03/09 09:58:15;;;;;;;2.22;1.09;;;;;;;19.65;40.58;100395.56;;;;-56
2020/03/09 10:01:15;;;;;;;1.28;1.01;;;;;;;19.66;40.69;100406.59;;;;-45
2020/03/09 10:04:15;;;;;;;3.17;1.25;;;;;;;19.64;40.47;100413.65;;;;-49
2020/03/09 10:07:15;;;;;;;3.66;1.29;;;;;;;19.63;40.35;100409.41;;;;-46
2020/03/09 10:10:15;;;;;;;1.29;1.13;;;;;;;19.64;40.27;100410.86;;;;-54
2020/03/09 10:13:15;;;;;;;5.47;1.32;;;;;;;19.64;40.54;100414.98;;;;-47
2020/03/09 10:16:15;;;;;;;1.29;1.10;;;;;;;19.64;40.43;100421.52;;;;-43
2020/03/09 10:19:15;;;;;;;5.33;1.24;;;;;;;19.68;40.34;100416.06;;;;-49
2020/03/09 10:22:15;;;;;;;2.73;1.33;;;;;;;19.68;40.28;100419.38;;;;-49
2020/03/09 10:25:15;;;;;;;2.87;1.25;;;;;;;19.68;40.33;100422.26;;;;-58
2020/03/09 10:28:15;;;;;;;6.23;1.48;;;;;;;19.70;40.50;100422.69;;;;-44
2020/03/09 10:31:15;;;;;;;5.35;1.43;;;;;;;19.67;40.62;100420.31;;;;-43
2020/03/09 10:34:15;;;;;;;1.87;1.30;;;;;;;19.69;40.74;100421.70;;;;-47
2020/03/09 10:37:15;;;;;;;4.64;1.38;;;;;;;19.78;40.96;100415.66;;;;-49
2020/03/09 10:40:15;;;;;;;2.65;1.53;;;;;;;19.83;40.96;100415.77;;;;-48
2020/03/09 10:43:15;;;;;;;2.74;1.34;;;;;;;19.89;40.90;100414.67;;;;-46
2020/03/09 10:46:15;;;;;;;3.69;1.21;;;;;;;19.95;40.98;100413.21;;;;-48
2020/03/09 10:49:15;;;;;;;2.17;1.30;;;;;;;19.99;40.91;100407.05;;;;-48
2020/03/09 10:52:15;;;;;;;2.44;1.20;;;;;;;20.02;40.80;100404.83;;;;-48
2020/03/09 10:55:15;;;;;;;1.81;1.30;;;;;;;20.07;40.94;100401.55;;;;-47
2020/03/09 10:58:15;;;;;;;2.23;1.24;;;;;;;20.08;40.47;100405.34;;;;-47
2020/03/09 11:01:15;;;;;;;2.37;1.20;;;;;;;20.11;40.44;100413.75;;;;-47
2020/03/09 11:04:15;;;;;;;1.34;1.13;;;;;;;20.15;40.28;100410.39;;;;-47
2020/03/09 11:07:15;;;;;;;1.75;1.10;;;;;;;20.14;40.09;100399.11;;;;-47
2020/03/09 11:10:15;;;;;;;1.21;1.10;;;;;;;20.17;40.12;100403.09;;;;-47
2020/03/09 11:13:15;;;;;;;2.43;1.27;;;;;;;20.19;40.09;100401.77;;;;-47
2020/03/09 11:16:15;;;;;;;1.28;1.11;;;;;;;20.21;39.95;100404.33;;;;-47
2020/03/09 11:19:15;;;;;;;1.45;1.20;;;;;;;20.22;39.97;100407.92;;;;-46
2020/03/09 11:22:15;;;;;;;1.44;1.15;;;;;;;20.23;39.94;100409.14;;;;-47
2020/03/09 11:25:15;;;;;;;2.72;1.28;;;;;;;20.28;39.91;100415.11;;;;-49
2020/03/09 11:28:15;;;;;;;2.01;1.35;;;;;;;20.29;39.80;100413.87;;;;-47
2020/03/09 11:31:15;;;;;;;1.53;1.08;;;;;;;20.30;39.81;100414.19;;;;-47
2020/03/09 11:34:15;;;;;;;1.47;1.11;;;;;;;20.27;39.79;100410.37;;;;-50
2020/03/09 11:37:16;;;;;;;4.53;1.32;;;;;;;20.22;39.68;100413.70;;;;-50
2020/03/09 11:40:15;;;;;;;1.59;1.29;;;;;;;20.19;39.80;100424.88;;;;-51
2020/03/09 11:43:15;;;;;;;2.57;1.32;;;;;;;20.17;39.94;100457.53;;;;-56
2020/03/09 11:46:15;;;;;;;1.97;1.29;;;;;;;20.15;40.05;100463.31;;;;-52
2020/03/09 11:49:15;;;;;;;4.61;1.44;;;;;;;20.14;40.11;100471.98;;;;-53
2020/03/09 11:52:15;;;;;;;2.13;1.40;;;;;;;20.13;40.08;100463.63;;;;-51
2020/03/09 11:55:15;;;;;;;4.56;1.50;;;;;;;20.19;40.07;100464.11;;;;-52
2020/03/09 11:58:15;;;;;;;2.57;1.47;;;;;;;20.22;39.90;100462.89;;;;-52
2020/03/09 12:01:16;;;;;;;3.49;1.49;;;;;;;20.24;39.83;100437.09;;;;-47
2020/03/09 12:04:15;;;;;;;2.54;1.33;;;;;;;20.27;39.78;100424.90;;;;-48
2020/03/09 12:07:15;;;;;;;1.59;1.21;;;;;;;20.28;39.72;100425.78;;;;-52
2020/03/09 12:10:15;;;;;;;1.77;1.31;;;;;;;20.29;39.69;100428.00;;;;-52
2020/03/09 12:13:15;;;;;;;2.43;1.15;;;;;;;20.32;39.66;100430.66;;;;-51
2020/03/09 12:16:15;;;;;;;1.74;1.31;;;;;;;20.33;39.56;100432.09;;;;-52
2020/03/09 12:19:15;;;;;;;1.23;1.13;;;;;;;20.34;39.52;100431.02;;;;-51
2020/03/09 12:22:15;;;;;;;1.75;1.26;;;;;;;20.36;39.55;100427.34;;;;-52
2020/03/09 12:25:15;;;;;;;1.29;1.10;;;;;;;20.36;39.55;100419.80;;;;-51
2020/03/09 12:28:15;;;;;;;1.63;1.36;;;;;;;20.39;39.43;100417.30;;;;-52
2020/03/09 12:31:15;;;;;;;1.81;1.20;;;;;;;20.40;39.52;100414.82;;;;-51
2020/03/09 12:34:15;;;;;;;1.17;1.09;;;;;;;20.42;39.47;100413.83;;;;-52
2020/03/09 12:37:15;;;;;;;1.67;1.28;;;;;;;20.44;39.47;100412.30;;;;-52
2020/03/09 12:40:15;;;;;;;1.32;1.14;;;;;;;20.45;39.40;100407.30;;;;-52
2020/03/09 12:43:15;;;;;;;2.01;1.20;;;;;;;20.46;39.42;100413.45;;;;-60
2020/03/09 12:46:15;;;;;;;1.49;1.22;;;;;;;20.47;39.41;100423.89;;;;-57
2020/03/09 12:49:15;;;;;;;1.29;1.19;;;;;;;20.48;39.37;100422.48;;;;-58
2020/03/09 12:52:15;;;;;;;1.27;1.17;;;;;;;20.50;39.37;100422.61;;;;-59
2020/03/09 12:55:15;;;;;;;1.20;1.10;;;;;;;20.51;39.36;100417.11;;;;-58
2020/03/09 12:58:15;;;;;;;3.43;1.25;;;;;;;20.52;39.56;100421.17;;;;-55
2020/03/09 13:01:15;;;;;;;3.60;1.13;;;;;;;20.54;40.01;100421.02;;;;-56
2020/03/09 13:04:15;;;;;;;1.34;1.10;;;;;;;20.55;40.02;100407.60;;;;-56
2020/03/09 13:07:15;;;;;;;2.55;1.09;;;;;;;20.58;40.07;100411.68;;;;-57
2020/03/09 13:10:15;;;;;;;3.26;1.29;;;;;;;20.60;39.97;100412.16;;;;-57
2020/03/09 13:13:15;;;;;;;1.73;1.31;;;;;;;20.59;40.03;100411.45;;;;-60
2020/03/09 13:16:15;;;;;;;2.57;1.17;;;;;;;20.60;40.08;100407.97;;;;-58
2020/03/09 13:19:15;;;;;;;1.61;1.11;;;;;;;20.62;40.03;100405.19;;;;-58
2020/03/09 13:22:15;;;;;;;1.75;1.35;;;;;;;20.63;39.86;100412.17;;;;-62
2020/03/09 13:25:15;;;;;;;1.20;1.10;;;;;;;20.61;40.34;100403.48;;;;-64
2020/03/09 13:28:15;;;;;;;2.33;1.28;;;;;;;20.64;40.26;100409.63;;;;-62
2020/03/09 13:31:15;;;;;;;1.28;1.18;;;;;;;20.68;40.28;100412.88;;;;-66
2020/03/09 13:34:27;;;;;;;2.19;1.30;;;;;;;20.67;40.17;100413.84;;;;-60
2020/03/09 13:37:15;;;;;;;1.64;1.11;;;;;;;20.68;40.00;100415.39;;;;-61
2020/03/09 13:40:15;;;;;;;1.83;1.34;;;;;;;20.68;39.79;100414.55;;;;-60
2020/03/09 13:43:15;;;;;;;2.25;1.32;;;;;;;20.67;39.97;100413.61;;;;-53
2020/03/09 13:46:15;;;;;;;5.39;1.47;;;;;;;20.69;40.09;100406.70;;;;-58
2020/03/09 13:49:15;;;;;;;3.16;1.26;;;;;;;20.76;40.15;100415.43;;;;-55
2020/03/09 13:52:15;;;;;;;5.07;1.29;;;;;;;20.80;40.11;100412.87;;;;-54
2020/03/09 13:55:15;;;;;;;4.45;1.46;;;;;;;20.82;40.15;100417.95;;;;-58
2020/03/09 13:58:15;;;;;;;4.09;1.43;;;;;;;20.85;40.20;100412.79;;;;-56
2020/03/09 14:01:15;;;;;;;6.97;1.38;;;;;;;20.84;40.15;100412.18;;;;-60
2020/03/09 14:04:15;;;;;;;2.93;1.31;;;;;;;20.84;40.09;100410.47;;;;-60
2020/03/09 14:07:15;;;;;;;2.81;1.27;;;;;;;20.83;39.95;100408.11;;;;-60
2020/03/09 14:10:15;;;;;;;3.32;1.54;;;;;;;20.82;39.91;100405.52;;;;-60
2020/03/09 14:13:15;;;;;;;2.99;1.21;;;;;;;20.81;39.81;100408.54;;;;-60
2020/03/09 14:16:15;;;;;;;2.77;1.29;;;;;;;20.83;39.66;100416.64;;;;-61
2020/03/09 14:19:15;;;;;;;2.05;1.20;;;;;;;20.82;39.63;100418.92;;;;-60
2020/03/09 14:22:15;;;;;;;2.77;1.30;;;;;;;20.81;39.66;100420.36;;;;-61
2020/03/09 14:25:15;;;;;;;3.29;1.08;;;;;;;20.79;39.57;100428.34;;;;-60
2020/03/09 14:28:15;;;;;;;2.77;1.30;;;;;;;20.80;39.57;100430.59;;;;-60
2020/03/09 14:31:15;;;;;;;1.57;1.13;;;;;;;20.78;39.51;100431.89;;;;-53
2020/03/09 14:34:15;;;;;;;2.67;1.28;;;;;;;20.79;39.47;100437.53;;;;-53
2020/03/09 14:37:15;;;;;;;2.43;1.34;;;;;;;20.78;39.48;100447.44;;;;-53
2020/03/09 14:40:15;;;;;;;1.73;1.17;;;;;;;20.78;39.46;100455.12;;;;-53
2020/03/09 14:43:15;;;;;;;1.27;1.11;;;;;;;20.78;39.43;100450.29;;;;-53
2020/03/09 14:46:15;;;;;;;2.91;1.11;;;;;;;20.77;39.36;100450.25;;;;-53
2020/03/09 14:49:15;;;;;;;3.12;1.20;;;;;;;20.78;39.34;100449.68;;;;-53
2020/03/09 14:52:15;;;;;;;2.47;1.11;;;;;;;20.78;39.32;100451.69;;;;-53
2020/03/09 14:55:15;;;;;;;2.07;1.23;;;;;;;20.78;39.27;100453.87;;;;-53
2020/03/09 14:58:15;;;;;;;1.68;1.14;;;;;;;20.79;39.31;100453.58;;;;-53
2020/03/09 15:01:15;;;;;;;1.65;1.09;;;;;;;20.79;39.28;100455.20;;;;-53
2020/03/09 15:04:15;;;;;;;1.83;1.35;;;;;;;20.82;39.28;100459.41;;;;-53
2020/03/09 15:07:15;;;;;;;2.24;1.13;;;;;;;20.82;39.23;100462.80;;;;-53
2020/03/09 15:10:15;;;;;;;2.23;1.37;;;;;;;20.82;39.39;100465.08;;;;-50
2020/03/09 15:13:15;;;;;;;1.65;1.31;;;;;;;20.83;39.83;100467.20;;;;-51
2020/03/09 15:16:15;;;;;;;1.59;1.19;;;;;;;20.83;40.18;100467.64;;;;-52
2020/03/09 15:19:15;;;;;;;3.01;1.30;;;;;;;20.84;40.25;100468.72;;;;-51
2020/03/09 15:22:15;;;;;;;3.12;1.36;;;;;;;20.85;40.35;100467.58;;;;-51
2020/03/09 15:25:15;;;;;;;3.25;1.40;;;;;;;20.88;40.46;100470.48;;;;-52
2020/03/09 15:28:15;;;;;;;1.78;1.19;;;;;;;20.88;40.29;100474.74;;;;-52
2020/03/09 15:31:15;;;;;;;1.95;1.31;;;;;;;20.88;40.42;100479.14;;;;-56
2020/03/09 15:34:15;;;;;;;1.64;1.20;;;;;;;20.87;40.18;100479.34;;;;-53
2020/03/09 15:37:15;;;;;;;5.37;1.30;;;;;;;20.89;40.41;100486.13;;;;-52
2020/03/09 15:40:15;;;;;;;2.69;1.20;;;;;;;20.89;40.43;100490.50;;;;-51
2020/03/09 15:43:15;;;;;;;2.51;1.54;;;;;;;20.91;40.17;100489.13;;;;-53
2020/03/09 15:46:15;;;;;;;3.22;1.41;;;;;;;20.89;40.00;100486.47;;;;-54
2020/03/09 15:49:15;;;;;;;1.72;1.39;;;;;;;20.91;40.21;100488.63;;;;-57
2020/03/09 15:52:15;;;;;;;1.71;1.36;;;;;;;20.91;40.25;100488.97;;;;-51
2020/03/09 15:55:15;;;;;;;1.69;1.29;;;;;;;20.92;40.36;100491.39;;;;-51
2020/03/09 15:58:15;;;;;;;2.79;1.41;;;;;;;20.92;40.12;100489.44;;;;-52
2020/03/09 16:01:15;;;;;;;5.47;1.59;;;;;;;20.93;39.87;100494.85;;;;-51
2020/03/09 16:04:15;;;;;;;3.20;1.39;;;;;;;20.94;39.83;100498.02;;;;-51
2020/03/09 16:07:15;;;;;;;1.41;1.31;;;;;;;20.91;39.53;100505.69;;;;-52
2020/03/09 16:10:15;;;;;;;2.96;1.69;;;;;;;20.87;39.40;100516.94;;;;-53
2020/03/09 16:13:15;;;;;;;3.77;1.50;;;;;;;20.91;39.85;100514.98;;;;-53
2020/03/09 16:16:15;;;;;;;3.68;1.83;;;;;;;20.92;39.83;100519.49;;;;-53
2020/03/09 16:19:15;;;;;;;3.45;1.61;;;;;;;20.96;39.91;100523.84;;;;-53
2020/03/09 16:22:15;;;;;;;3.75;1.57;;;;;;;20.96;40.02;100522.58;;;;-52
2020/03/09 16:25:15;;;;;;;3.23;1.50;;;;;;;20.98;40.18;100519.39;;;;-52
2020/03/09 16:28:15;;;;;;;8.33;1.55;;;;;;;20.98;39.93;100522.82;;;;-51
2020/03/09 16:31:15;;;;;;;4.26;1.51;;;;;;;20.99;40.38;100529.00;;;;-52
2020/03/09 16:34:15;;;;;;;4.84;1.64;;;;;;;21.01;39.99;100536.03;;;;-53
2020/03/09 16:37:15;;;;;;;4.27;1.51;;;;;;;21.01;40.23;100537.98;;;;-50
2020/03/09 16:40:15;;;;;;;3.57;1.71;;;;;;;21.01;40.05;100541.91;;;;-52
2020/03/09 16:43:15;;;;;;;3.89;1.63;;;;;;;21.02;39.99;100546.75;;;;-53
2020/03/09 16:46:15;;;;;;;2.36;1.52;;;;;;;21.03;40.11;100545.78;;;;-52